Time;durP1;ratioP1;P1;durP2;ratioP2;P2;SDS_P1;SDS_P2;PMS_P1;PMS_P2;Temp;Humidity;BMP_temperature;BMP_pressure;BME280_temperature;BME280_humidity;BME280_pressure;Samples;Min_cycle;Max_cycle;Signal;HPM_P1;HPM_P2
2023/04/22 00:01:50;;;;;;;21.35;8.75;;;13.30;80.00;;;;;;5052149;28;20055;-79
2023/04/22 00:04:15;;;;;;;18.52;8.80;;;13.20;80.30;;;;;;5051799;28;20112;-76
2023/04/22 00:06:41;;;;;;;23.60;10.15;;;13.20;80.60;;;;;;5052701;28;20445;-75
2023/04/22 00:09:07;;;;;;;19.20;8.88;;;13.20;80.40;;;;;;5052363;28;20112;-75
2023/04/22 00:11:32;;;;;;;27.95;9.18;;;13.10;80.70;;;;;;5052400;28;20043;-75
2023/04/22 00:13:58;;;;;;;15.73;7.97;;;13.10;80.80;;;;;;5051818;28;20025;-75
2023/04/22 00:16:25;;;;;;;21.95;9.30;;;13.00;80.90;;;;;;5052425;28;20025;-75
2023/04/22 00:18:50;;;;;;;15.27;8.05;;;13.00;80.90;;;;;;5052701;28;20078;-85
2023/04/22 00:21:16;;;;;;;17.73;9.73;;;13.00;81.30;;;;;;5052947;28;20025;-76
2023/04/22 00:23:44;;;;;;;20.75;8.70;;;12.90;81.10;;;;;;5056770;28;20040;-75
2023/04/22 00:26:10;;;;;;;21.13;8.50;;;12.90;81.70;;;;;;5056015;28;20465;-75
2023/04/22 00:28:36;;;;;;;19.05;8.85;;;12.80;81.90;;;;;;5056764;28;20101;-75
2023/04/22 00:31:03;;;;;;;17.25;8.18;;;12.70;82.20;;;;;;5056167;28;20524;-75
2023/04/22 00:33:29;;;;;;;23.77;8.25;;;12.70;82.50;;;;;;5056638;28;20076;-74
2023/04/22 00:35:55;;;;;;;17.08;7.82;;;12.70;82.70;;;;;;5056405;28;20033;-76
2023/04/22 00:38:20;;;;;;;22.85;8.55;;;12.70;82.70;;;;;;5056729;28;20029;-75
2023/04/22 00:40:46;;;;;;;17.95;8.15;;;12.70;83.20;;;;;;5056743;28;20024;-76
2023/04/22 00:43:12;;;;;;;19.55;8.40;;;12.60;82.90;;;;;;5055925;28;20393;-76
2023/04/22 00:45:38;;;;;;;21.75;8.70;;;12.70;83.20;;;;;;5056128;28;20053;-76
2023/04/22 00:48:04;;;;;;;22.45;8.82;;;12.60;83.60;;;;;;5056294;28;20417;-76
2023/04/22 00:50:30;;;;;;;21.48;7.82;;;12.60;83.50;;;;;;5056448;28;20461;-75
2023/04/22 00:52:56;;;;;;;28.55;8.82;;;12.60;84.20;;;;;;5055790;28;20075;-76
2023/04/22 00:55:21;;;;;;;18.45;8.45;;;12.50;83.90;;;;;;5056376;28;20029;-76
2023/04/22 00:57:50;;;;;;;33.88;9.73;;;12.50;85.10;;;;;;5056240;28;20025;-74
2023/04/22 01:00:16;;;;;;;28.70;8.80;;;12.40;85.80;;;;;;5055708;28;20025;-74
2023/04/22 01:02:41;;;;;;;27.58;9.15;;;12.40;85.70;;;;;;5057953;28;20032;-75
2023/04/22 01:05:10;;;;;;;24.73;9.40;;;12.40;85.80;;;;;;5062895;28;20025;-75
2023/04/22 01:07:36;;;;;;;31.35;9.93;;;12.40;85.80;;;;;;5065914;28;20032;-75
2023/04/22 01:10:03;;;;;;;21.83;9.88;;;12.30;86.10;;;;;;5054622;28;20021;-75
2023/04/22 01:12:28;;;;;;;23.33;9.07;;;12.30;86.20;;;;;;5055820;28;20029;-75
2023/04/22 01:14:54;;;;;;;26.83;9.05;;;12.30;86.70;;;;;;5054680;28;20029;-75
2023/04/22 01:17:20;;;;;;;24.98;9.50;;;12.20;86.70;;;;;;5055909;28;20029;-75
2023/04/22 01:19:47;;;;;;;19.15;9.07;;;12.20;87.70;;;;;;5055693;28;20032;-75
2023/04/22 01:22:13;;;;;;;22.45;7.95;;;12.10;88.30;;;;;;5055404;28;20047;-75
2023/04/22 01:24:40;;;;;;;21.10;8.52;;;12.10;88.90;;;;;;5055707;28;20025;-75
2023/04/22 01:27:06;;;;;;;27.23;9.07;;;12.00;89.00;;;;;;5054948;28;20102;-75
2023/04/22 01:29:32;;;;;;;22.52;8.90;;;12.10;88.90;;;;;;5055420;28;20504;-75
2023/04/22 01:31:58;;;;;;;24.42;8.30;;;12.10;89.00;;;;;;5055074;28;20056;-76
2023/04/22 01:34:23;;;;;;;21.15;8.38;;;12.00;89.40;;;;;;5053906;28;20033;-75
2023/04/22 01:36:50;;;;;;;22.65;8.90;;;12.00;90.20;;;;;;5055450;28;20021;-75
2023/04/22 01:39:16;;;;;;;20.30;8.90;;;11.90;90.10;;;;;;5054980;28;20030;-76
2023/04/22 01:41:42;;;;;;;18.05;8.85;;;11.90;90.10;;;;;;5055010;28;20051;-75
2023/04/22 01:44:08;;;;;;;14.07;8.55;;;11.90;90.50;;;;;;5055118;28;20461;-75
2023/04/22 01:46:33;;;;;;;17.63;8.85;;;11.90;90.70;;;;;;5057248;28;20109;-75
2023/04/22 01:48:59;;;;;;;17.25;9.23;;;11.90;90.90;;;;;;5057506;28;20036;-76
2023/04/22 01:51:25;;;;;;;15.38;9.18;;;11.90;91.00;;;;;;5057787;28;20037;-76
2023/04/22 01:53:50;;;;;;;23.15;10.35;;;11.90;91.30;;;;;;5057905;28;20075;-75
2023/04/22 01:56:17;;;;;;;13.05;9.70;;;11.90;91.50;;;;;;5056730;28;20083;-76
2023/04/22 01:58:42;;;;;;;17.65;9.75;;;11.90;91.60;;;;;;5055087;28;20060;-75
2023/04/22 02:01:09;;;;;;;18.48;9.68;;;11.90;91.70;;;;;;5055021;28;20065;-75
2023/04/22 02:03:35;;;;;;;14.32;9.00;;;11.90;92.50;;;;;;5053679;28;20040;-75
2023/04/22 02:06:01;;;;;;;18.05;9.68;;;11.90;92.40;;;;;;5054614;28;20035;-75
2023/04/22 02:08:27;;;;;;;22.55;9.40;;;11.80;92.70;;;;;;5054660;28;20025;-75
2023/04/22 02:10:52;;;;;;;19.98;9.25;;;11.80;93.10;;;;;;5054886;28;20025;-75
2023/04/22 02:13:18;;;;;;;18.90;9.35;;;11.70;93.20;;;;;;5052956;28;20200;-75
2023/04/22 02:15:44;;;;;;;15.70;8.95;;;11.70;93.30;;;;;;5054485;28;20029;-75
2023/04/22 02:18:10;;;;;;;14.80;8.82;;;11.60;93.40;;;;;;5054031;28;20029;-75
2023/04/22 02:20:35;;;;;;;19.35;8.82;;;11.70;93.40;;;;;;5054422;28;20032;-75
2023/04/22 02:23:02;;;;;;;17.02;8.80;;;11.60;93.30;;;;;;5053020;28;20029;-75
2023/04/22 02:25:28;;;;;;;18.70;9.10;;;11.60;93.20;;;;;;5054848;28;20032;-75
2023/04/22 02:27:54;;;;;;;16.70;8.85;;;11.60;93.50;;;;;;5054486;28;20108;-75
2023/04/22 02:30:21;;;;;;;15.95;9.20;;;11.50;93.60;;;;;;5053808;28;20048;-75
2023/04/22 02:32:46;;;;;;;19.48;9.23;;;11.50;94.20;;;;;;5054338;28;20037;-75
2023/04/22 02:35:12;;;;;;;17.42;9.48;;;11.40;94.40;;;;;;5053760;28;20027;-75
2023/04/22 02:37:38;;;;;;;28.25;8.63;;;11.40;94.60;;;;;;5053081;28;20056;-75
2023/04/22 02:40:06;;;;;;;16.92;8.60;;;11.40;94.60;;;;;;5053875;28;20500;-76
2023/04/22 02:42:31;;;;;;;13.70;8.50;;;11.40;94.50;;;;;;5054146;28;20086;-75
2023/04/22 02:44:57;;;;;;;14.60;8.13;;;11.40;94.80;;;;;;5052220;28;20045;-75
2023/04/22 02:47:23;;;;;;;15.05;8.48;;;11.30;94.80;;;;;;5053491;28;20029;-76
2023/04/22 02:49:48;;;;;;;14.20;9.18;;;11.30;95.00;;;;;;5054032;28;20100;-76
2023/04/22 02:52:14;;;;;;;20.90;9.65;;;11.30;95.20;;;;;;5053271;28;20065;-75
2023/04/22 02:54:40;;;;;;;24.67;9.02;;;11.20;95.50;;;;;;5052674;28;20025;-75
2023/04/22 02:57:05;;;;;;;20.65;9.50;;;11.20;95.80;;;;;;5053768;28;20040;-76
2023/04/22 02:59:31;;;;;;;16.88;8.63;;;11.10;96.10;;;;;;5052491;28;20033;-75
2023/04/22 03:01:57;;;;;;;16.77;8.40;;;11.10;96.20;;;;;;5053770;28;20090;-75
2023/04/22 03:04:24;;;;;;;22.25;9.30;;;11.10;96.30;;;;;;5052927;28;20427;-75
2023/04/22 03:06:50;;;;;;;15.10;9.25;;;11.00;96.30;;;;;;5052376;28;20025;-75
2023/04/22 03:09:16;;;;;;;18.88;9.15;;;11.00;96.50;;;;;;5053257;28;20476;-75
2023/04/22 03:11:42;;;;;;;17.90;9.07;;;11.00;97.20;;;;;;5053489;28;20078;-76
2023/04/22 03:14:07;;;;;;;14.35;9.63;;;11.00;97.30;;;;;;5053491;28;20025;-76
2023/04/22 03:16:33;;;;;;;21.35;9.23;;;10.90;97.20;;;;;;5053396;28;20028;-75
2023/04/22 03:18:59;;;;;;;17.70;9.90;;;10.90;97.40;;;;;;5053249;28;20029;-75
2023/04/22 03:21:24;;;;;;;19.77;9.82;;;10.90;97.70;;;;;;5053070;28;20037;-75
2023/04/22 03:23:50;;;;;;;21.30;9.45;;;10.90;98.10;;;;;;5053415;28;20452;-75
2023/04/22 03:26:15;;;;;;;14.02;9.05;;;10.90;98.60;;;;;;5053060;28;20503;-75
2023/04/22 03:28:41;;;;;;;13.73;9.10;;;10.80;98.60;;;;;;5053269;28;20025;-75
2023/04/22 03:31:07;;;;;;;14.88;9.35;;;10.90;98.80;;;;;;5052802;28;20032;-76
2023/04/22 03:33:32;;;;;;;16.75;10.48;;;10.80;98.90;;;;;;5053173;28;20028;-75
2023/04/22 03:35:58;;;;;;;19.88;10.70;;;10.80;99.00;;;;;;5052921;28;20070;-76
2023/04/22 03:38:24;;;;;;;19.38;11.07;;;10.80;99.10;;;;;;5052705;28;20028;-76
2023/04/22 03:40:49;;;;;;;14.80;10.18;;;10.90;99.10;;;;;;5052842;28;20112;-75
2023/04/22 03:43:15;;;;;;;21.70;9.38;;;10.90;99.00;;;;;;5052767;28;20031;-75
2023/04/22 03:45:41;;;;;;;19.38;9.15;;;10.90;98.80;;;;;;5052620;28;20049;-75
2023/04/22 03:48:07;;;;;;;18.33;9.43;;;10.90;99.00;;;;;;5052709;28;20065;-76
2023/04/22 03:50:32;;;;;;;19.05;8.77;;;10.90;99.00;;;;;;5052908;28;20068;-75
2023/04/22 03:52:58;;;;;;;18.52;9.18;;;10.80;99.00;;;;;;5052701;28;20171;-75
2023/04/22 03:55:24;;;;;;;20.20;9.90;;;10.80;99.10;;;;;;5052340;28;20025;-75
2023/04/22 03:57:49;;;;;;;14.13;8.90;;;10.70;99.60;;;;;;5052301;28;20116;-75
2023/04/22 04:00:15;;;;;;;19.05;10.10;;;10.60;99.90;;;;;;5052492;28;20057;-76
2023/04/22 04:02:42;;;;;;;16.73;9.65;;;10.60;99.90;;;;;;5052818;28;20060;-74
2023/04/22 04:05:09;;;;;;;18.55;9.40;;;10.60;99.90;;;;;;5052411;28;20066;-77
2023/04/22 04:07:36;;;;;;;13.90;9.07;;;10.60;99.90;;;;;;5051469;28;20167;-74
2023/04/22 04:10:02;;;;;;;18.63;9.75;;;10.60;99.90;;;;;;5052690;28;20047;-74
2023/04/22 04:12:27;;;;;;;16.55;9.23;;;10.60;99.90;;;;;;5051953;28;20036;-75
2023/04/22 04:14:53;;;;;;;18.88;9.10;;;10.60;99.90;;;;;;5052336;28;20025;-74
2023/04/22 04:17:19;;;;;;;14.38;9.15;;;10.60;99.90;;;;;;5052518;28;20040;-74
2023/04/22 04:19:45;;;;;;;16.98;9.70;;;10.50;99.90;;;;;;5051478;28;20024;-76
2023/04/22 04:22:10;;;;;;;15.40;9.65;;;10.50;99.90;;;;;;5051913;28;20025;-77
2023/04/22 04:24:40;;;;;;;19.15;10.10;;;10.50;99.90;;;;;;5052604;28;20470;-76
2023/04/22 04:27:07;;;;;;;21.90;10.35;;;10.50;99.90;;;;;;5052597;28;20032;-76
2023/04/22 04:29:34;;;;;;;20.00;10.20;;;10.50;99.90;;;;;;5052151;28;20029;-76
2023/04/22 04:32:00;;;;;;;17.65;10.18;;;10.40;99.90;;;;;;5052518;28;20474;-76
2023/04/22 04:34:25;;;;;;;20.05;10.32;;;10.40;99.90;;;;;;5052133;28;20036;-76
2023/04/22 04:36:51;;;;;;;25.15;10.18;;;10.50;99.90;;;;;;5052364;28;20029;-76
2023/04/22 04:39:17;;;;;;;18.55;9.77;;;10.50;99.90;;;;;;5052113;28;20021;-75
2023/04/22 04:41:43;;;;;;;18.88;10.32;;;10.50;99.90;;;;;;5052536;28;20025;-76
2023/04/22 04:44:10;;;;;;;18.50;10.20;;;10.50;99.90;;;;;;5052334;28;20045;-76
2023/04/22 04:46:36;;;;;;;18.77;10.13;;;10.60;99.90;;;;;;5052505;28;20029;-76
2023/04/22 04:49:03;;;;;;;18.25;9.93;;;10.70;99.90;;;;;;5052432;28;20025;-76
2023/04/22 04:51:31;;;;;;;25.85;10.38;;;10.70;99.90;;;;;;5051646;28;20564;-76
2023/04/22 04:53:57;;;;;;;17.30;9.77;;;10.80;99.90;;;;;;5052321;28;20037;-76
2023/04/22 04:56:22;;;;;;;23.98;10.55;;;10.80;99.90;;;;;;5051975;28;20025;-75
2023/04/22 04:58:48;;;;;;;16.92;9.90;;;10.80;99.90;;;;;;5052035;28;20100;-75
2023/04/22 05:01:14;;;;;;;20.55;10.10;;;10.80;99.90;;;;;;5052061;28;20025;-75
2023/04/22 05:03:40;;;;;;;15.10;9.80;;;10.80;99.90;;;;;;5052198;28;20082;-76
2023/04/22 05:06:06;;;;;;;17.17;10.13;;;10.80;99.90;;;;;;5052251;28;20083;-76
2023/04/22 05:08:33;;;;;;;15.95;10.10;;;10.90;99.90;;;;;;5054135;28;20069;-76
2023/04/22 05:10:58;;;;;;;16.73;9.68;;;10.90;99.90;;;;;;5054860;28;20481;-75
2023/04/22 05:13:25;;;;;;;15.05;8.75;;;10.90;99.90;;;;;;5055484;28;20037;-75
2023/04/22 05:15:50;;;;;;;17.23;9.93;;;10.90;99.90;;;;;;5055468;28;20025;-75
2023/04/22 05:18:17;;;;;;;22.75;9.70;;;11.00;99.90;;;;;;5055210;28;20469;-76
2023/04/22 05:20:42;;;;;;;16.35;9.18;;;11.00;99.90;;;;;;5056051;28;20025;-75
2023/04/22 05:23:08;;;;;;;17.58;9.15;;;11.10;99.90;;;;;;5055678;28;20033;-75
2023/04/22 05:25:33;;;;;;;16.58;9.50;;;11.10;99.90;;;;;;5054995;28;20025;-75
2023/04/22 05:27:59;;;;;;;13.73;9.25;;;11.10;99.90;;;;;;5055399;28;20086;-75
2023/04/22 05:30:25;;;;;;;18.38;9.65;;;11.20;99.90;;;;;;5054907;28;20025;-75
2023/04/22 05:32:50;;;;;;;14.05;10.40;;;11.30;99.90;;;;;;5055547;28;20044;-76
2023/04/22 05:35:16;;;;;;;23.67;9.95;;;11.30;99.90;;;;;;5054886;28;20017;-75
2023/04/22 05:37:41;;;;;;;15.07;10.25;;;11.30;99.80;;;;;;5055469;28;20035;-74
2023/04/22 05:40:08;;;;;;;20.30;8.95;;;11.40;99.90;;;;;;5055408;28;20032;-76
2023/04/22 05:42:34;;;;;;;15.63;8.85;;;11.40;99.50;;;;;;5055222;28;20035;-76
2023/04/22 05:44:59;;;;;;;19.25;9.95;;;11.50;99.70;;;;;;5054957;28;20057;-76
2023/04/22 05:47:25;;;;;;;13.88;9.48;;;11.60;99.30;;;;;;5054539;28;20452;-76
2023/04/22 05:49:51;;;;;;;20.48;9.40;;;11.80;99.50;;;;;;5055558;28;20078;-76
2023/04/22 05:52:17;;;;;;;20.40;8.50;;;12.00;98.00;;;;;;5053474;28;20040;-77
2023/04/22 05:54:43;;;;;;;18.50;8.27;;;12.20;97.30;;;;;;5055211;28;20035;-76
2023/04/22 05:57:09;;;;;;;16.05;8.85;;;12.40;96.00;;;;;;5055135;28;20112;-76
2023/04/22 05:59:34;;;;;;;14.45;8.15;;;12.70;95.70;;;;;;5054344;28;20048;-76
2023/04/22 06:02:00;;;;;;;19.63;7.38;;;12.90;93.30;;;;;;5054610;28;20036;-76
2023/04/22 06:04:26;;;;;;;16.88;7.72;;;13.30;93.50;;;;;;5053313;28;20374;-76
2023/04/22 06:06:54;;;;;;;18.00;7.32;;;13.60;91.60;;;;;;5053278;28;20477;-76
2023/04/22 06:09:20;;;;;;;19.98;7.93;;;14.00;90.50;;;;;;5054544;28;20025;-76
2023/04/22 06:11:46;;;;;;;14.52;8.32;;;14.30;87.70;;;;;;5054864;28;20075;-75
2023/04/22 06:14:12;;;;;;;15.02;8.10;;;14.60;86.50;;;;;;5054270;28;20075;-76
2023/04/22 06:16:38;;;;;;;14.77;7.63;;;14.80;84.40;;;;;;5054293;28;20025;-75
2023/04/22 06:19:05;;;;;;;13.25;7.95;;;15.10;81.10;;;;;;5054003;28;20366;-75
2023/04/22 06:21:32;;;;;;;16.85;8.50;;;15.30;77.90;;;;;;5054205;28;20029;-75
2023/04/22 06:24:01;;;;;;;14.77;8.13;;;15.40;75.50;;;;;;5053248;28;20025;-75
2023/04/22 06:26:27;;;;;;;12.88;8.15;;;15.60;74.60;;;;;;5054235;28;20029;-76
2023/04/22 06:28:52;;;;;;;16.45;7.63;;;15.70;73.50;;;;;;5054195;28;20032;-75
2023/04/22 06:31:18;;;;;;;13.15;7.43;;;15.90;72.70;;;;;;5052668;28;20032;-80
2023/04/22 06:33:44;;;;;;;11.60;7.82;;;16.00;71.40;;;;;;5053002;28;20036;-76
2023/04/22 06:36:12;;;;;;;17.05;8.40;;;16.20;71.90;;;;;;5054176;28;20032;-76
2023/04/22 06:38:38;;;;;;;16.23;9.65;;;16.40;71.00;;;;;;5053738;28;20488;-76
2023/04/22 06:41:04;;;;;;;16.77;9.30;;;16.60;70.30;;;;;;5053795;28;20040;-76
2023/04/22 06:43:29;;;;;;;15.07;8.45;;;16.90;70.40;;;;;;5053204;28;20469;-76
2023/04/22 06:45:55;;;;;;;12.82;8.30;;;17.10;67.70;;;;;;5053969;28;20031;-75
2023/04/22 06:48:21;;;;;;;15.93;9.23;;;17.40;69.00;;;;;;5053296;28;20029;-75
2023/04/22 06:50:46;;;;;;;12.55;8.32;;;17.70;66.60;;;;;;5054209;28;20027;-74
2023/04/22 06:53:12;;;;;;;14.10;8.55;;;18.10;65.70;;;;;;5054623;28;20029;-77
2023/04/22 06:55:38;;;;;;;13.88;8.10;;;18.80;65.00;;;;;;5052265;28;20036;-77
2023/04/22 06:58:04;;;;;;;11.73;7.85;;;19.50;63.60;;;;;;5052507;28;20032;-77
2023/04/22 07:00:29;;;;;;;10.38;6.90;;;20.50;60.70;;;;;;5053358;28;20489;-76
2023/04/22 07:02:55;;;;;;;13.07;7.65;;;21.30;56.60;;;;;;5053748;28;20366;-74
2023/04/22 07:05:20;;;;;;;15.63;7.65;;;22.10;54.90;;;;;;5053170;28;20060;-80
2023/04/22 07:07:46;;;;;;;17.98;7.72;;;22.70;52.10;;;;;;5053573;28;20103;-75
2023/04/22 07:10:13;;;;;;;12.35;7.40;;;23.30;51.10;;;;;;5053209;28;20029;-76
2023/04/22 07:12:39;;;;;;;10.77;7.72;;;23.80;48.20;;;;;;5053141;28;20033;-76
2023/04/22 07:15:05;;;;;;;11.70;7.45;;;24.50;47.20;;;;;;5053475;28;20025;-76
2023/04/22 07:17:31;;;;;;;16.88;7.05;;;25.10;46.20;;;;;;5053363;28;20022;-75
2023/04/22 07:19:57;;;;;;;10.85;6.88;;;25.60;44.30;;;;;;5053156;28;20017;-76
2023/04/22 07:22:23;;;;;;;14.55;7.00;;;26.00;43.10;;;;;;5052572;28;20149;-77
2023/04/22 07:24:48;;;;;;;12.20;7.65;;;26.40;43.60;;;;;;5053243;28;20377;-76
2023/04/22 07:27:15;;;;;;;14.88;7.43;;;26.70;41.20;;;;;;5053322;28;20025;-76
2023/04/22 07:29:41;;;;;;;11.65;7.30;;;26.70;41.90;;;;;;5053234;28;20472;-75
2023/04/22 07:32:06;;;;;;;13.40;7.40;;;27.00;41.20;;;;;;5053178;28;20029;-75
2023/04/22 07:34:32;;;;;;;14.77;7.20;;;27.00;40.30;;;;;;5053151;28;20079;-75
2023/04/22 07:36:57;;;;;;;10.20;7.40;;;27.00;41.20;;;;;;5053186;28;20035;-75
2023/04/22 07:39:23;;;;;;;11.27;7.28;;;27.60;40.60;;;;;;5052856;28;20029;-80
2023/04/22 07:41:50;;;;;;;12.00;7.45;;;27.70;39.20;;;;;;5053063;28;20071;-75
2023/04/22 07:44:20;;;;;;;11.57;6.95;;;28.20;40.60;;;;;;5052887;28;20045;-76
2023/04/22 07:46:46;;;;;;;13.02;7.00;;;28.70;39.10;;;;;;5052592;28;20017;-76
2023/04/22 07:49:18;;;;;;;13.00;7.15;;;28.90;37.50;;;;;;5052966;28;20037;-75
2023/04/22 07:51:44;;;;;;;13.48;7.57;;;29.40;36.80;;;;;;5051375;28;20036;-76
2023/04/22 07:54:10;;;;;;;13.90;7.40;;;29.90;36.00;;;;;;5052621;28;20104;-76
2023/04/22 07:56:36;;;;;;;13.80;6.90;;;30.30;35.50;;;;;;5052491;28;20158;-76
2023/04/22 07:59:02;;;;;;;11.80;7.55;;;29.80;35.40;;;;;;5052722;28;20029;-75
2023/04/22 08:01:28;;;;;;;13.77;6.97;;;29.70;36.10;;;;;;5052310;28;20421;-76
2023/04/22 08:03:53;;;;;;;11.43;7.18;;;29.80;35.90;;;;;;5052455;28;20104;-75
2023/04/22 08:06:19;;;;;;;10.07;7.30;;;30.40;36.10;;;;;;5051201;28;20033;-76
2023/04/22 08:08:45;;;;;;;10.20;7.10;;;30.80;35.30;;;;;;5052506;28;20040;-76
2023/04/22 08:11:11;;;;;;;14.90;7.45;;;30.50;34.70;;;;;;5052633;28;20427;-75
2023/04/22 08:13:36;;;;;;;15.90;7.32;;;30.30;35.30;;;;;;5052203;28;20164;-76
2023/04/22 08:16:02;;;;;;;12.38;6.88;;;30.50;34.90;;;;;;5052690;28;20446;-75
2023/04/22 08:18:28;;;;;;;13.13;7.03;;;30.50;36.10;;;;;;5052313;28;20029;-76
2023/04/22 08:20:54;;;;;;;10.70;6.47;;;30.40;35.20;;;;;;5052540;28;20036;-75
2023/04/22 08:23:21;;;;;;;12.80;5.05;;;30.50;35.40;;;;;;5052630;28;20032;-75
2023/04/22 08:25:47;;;;;;;10.50;4.82;;;30.40;34.70;;;;;;5052217;28;20037;-75
2023/04/22 08:28:13;;;;;;;11.35;5.25;;;30.40;34.80;;;;;;5052536;28;20028;-75
2023/04/22 08:30:39;;;;;;;11.38;4.63;;;30.30;34.70;;;;;;5051915;28;20385;-75
2023/04/22 08:33:05;;;;;;;11.13;4.90;;;30.10;35.30;;;;;;5052251;28;20029;-75
2023/04/22 08:35:33;;;;;;;8.48;4.65;;;29.90;36.30;;;;;;5052095;28;20036;-76
2023/04/22 08:37:59;;;;;;;8.90;5.03;;;30.00;36.40;;;;;;5052727;28;20029;-75
2023/04/22 08:40:25;;;;;;;12.13;4.80;;;29.80;35.20;;;;;;5052485;28;20025;-75
2023/04/22 08:42:51;;;;;;;12.98;5.32;;;29.40;37.00;;;;;;5053170;28;20033;-75
2023/04/22 08:45:17;;;;;;;7.50;4.60;;;28.80;37.50;;;;;;5056082;28;20049;-75
2023/04/22 08:47:43;;;;;;;9.75;4.40;;;28.80;36.60;;;;;;5055915;28;20032;-75
2023/04/22 08:50:09;;;;;;;12.50;4.90;;;28.20;37.70;;;;;;5056460;28;20025;-75
2023/04/22 08:52:34;;;;;;;16.35;5.57;;;27.70;38.30;;;;;;5055709;28;20112;-76
2023/04/22 08:55:00;;;;;;;16.10;5.43;;;27.40;38.60;;;;;;5056064;28;20111;-74
2023/04/22 08:57:27;;;;;;;13.93;5.38;;;27.20;39.00;;;;;;5056124;28;20029;-74
2023/04/22 08:59:55;;;;;;;8.98;4.45;;;26.70;40.00;;;;;;5055953;28;20033;-74
2023/04/22 09:02:22;;;;;;;11.05;4.93;;;26.30;40.10;;;;;;5056017;28;20029;-74
2023/04/22 09:04:50;;;;;;;6.93;4.13;;;25.80;41.00;;;;;;5054434;28;20035;-75
2023/04/22 09:07:21;;;;;;;10.93;4.65;;;25.40;41.50;;;;;;5055745;28;20033;-74
2023/04/22 09:09:47;;;;;;;7.00;4.20;;;25.10;41.60;;;;;;5054372;28;20025;-74
2023/04/22 09:12:13;;;;;;;7.53;4.75;;;24.70;43.80;;;;;;5055667;28;20079;-75
2023/04/22 09:14:39;;;;;;;8.13;4.40;;;24.40;44.50;;;;;;5055148;28;20035;-75
2023/04/22 09:17:04;;;;;;;8.93;4.32;;;24.20;44.40;;;;;;5055538;28;20024;-75
2023/04/22 09:19:30;;;;;;;12.27;4.57;;;24.10;44.90;;;;;;5055304;28;20116;-87
2023/04/22 09:21:59;;;;;;;11.35;4.53;;;23.90;45.10;;;;;;5055485;28;20025;-75
2023/04/22 09:24:25;;;;;;;9.40;3.40;;;23.70;44.50;;;;;;5055446;28;20104;-74
2023/04/22 09:26:50;;;;;;;13.05;3.90;;;23.50;45.30;;;;;;5054524;28;20550;-74
2023/04/22 09:29:16;;;;;;;6.05;3.83;;;23.40;45.40;;;;;;5055535;28;20108;-74
2023/04/22 09:31:48;;;;;;;12.27;4.88;;;23.40;46.40;;;;;;5055091;28;20489;-75
2023/04/22 09:34:14;;;;;;;13.32;4.57;;;23.50;46.40;;;;;;5055697;28;20025;-75
2023/04/22 09:36:42;;;;;;;13.32;4.82;;;23.50;46.60;;;;;;5055433;28;20036;-75
2023/04/22 09:39:08;;;;;;;9.55;4.05;;;23.50;46.60;;;;;;5054067;28;20021;-74
2023/04/22 09:41:39;;;;;;;8.88;4.00;;;23.50;47.20;;;;;;5055113;28;20032;-75
2023/04/22 09:44:15;;;;;;;7.75;4.32;;;23.50;46.70;;;;;;5055270;28;20045;-75
2023/04/22 09:46:42;;;;;;;8.45;3.42;;;23.40;46.70;;;;;;5055136;28;20017;-74
2023/04/22 09:49:08;;;;;;;9.25;3.70;;;23.30;46.30;;;;;;5055265;28;20075;-74
2023/04/22 09:51:34;;;;;;;8.30;3.42;;;23.20;45.30;;;;;;5054846;28;20048;-75
2023/04/22 09:54:09;;;;;;;6.18;3.30;;;23.20;46.30;;;;;;5054300;28;20025;-74
2023/04/22 09:56:42;;;;;;;15.05;4.28;;;23.20;45.90;;;;;;5054893;28;20032;-75
2023/04/22 09:59:08;;;;;;;6.38;3.10;;;23.10;46.10;;;;;;5055245;28;20156;-75
2023/04/22 10:01:40;;;;;;;7.75;3.45;;;23.00;47.00;;;;;;5055273;28;20021;-80
2023/04/22 10:04:10;;;;;;;7.75;3.88;;;22.80;46.70;;;;;;5055402;28;20051;-75
2023/04/22 10:06:36;;;;;;;12.20;4.43;;;22.80;46.90;;;;;;5053492;28;20422;-75
2023/04/22 10:09:03;;;;;;;11.20;3.47;;;22.70;46.80;;;;;;5054841;28;20048;-75
2023/04/22 10:11:31;;;;;;;11.07;3.58;;;22.60;46.70;;;;;;5054574;28;20054;-75
2023/04/22 10:13:57;;;;;;;10.60;3.50;;;22.50;46.90;;;;;;5054567;28;20038;-75
2023/04/22 10:16:24;;;;;;;4.75;3.60;;;22.50;46.80;;;;;;5054815;28;20028;-76
2023/04/22 10:18:53;;;;;;;8.43;3.63;;;22.50;46.50;;;;;;5053130;28;20029;-75
2023/04/22 10:21:20;;;;;;;9.95;3.42;;;22.30;47.10;;;;;;5054875;28;20020;-75
2023/04/22 10:23:47;;;;;;;6.05;2.95;;;22.30;47.10;;;;;;5054071;28;20386;-75
2023/04/22 10:26:40;;;;;;;9.80;3.20;;;22.30;46.50;;;;;;5054465;28;20029;-74
2023/04/22 10:29:15;;;;;;;7.82;3.25;;;22.30;47.50;;;;;;5054433;28;20075;-75
2023/04/22 10:31:43;;;;;;;11.60;3.42;;;22.40;47.70;;;;;;5054121;28;20033;-75
2023/04/22 10:34:14;;;;;;;7.22;3.45;;;22.50;47.50;;;;;;5054592;28;20060;-75
2023/04/22 10:36:59;;;;;;;7.13;3.38;;;22.50;47.90;;;;;;5053903;28;20025;-75
2023/04/22 10:39:27;;;;;;;5.05;2.92;;;22.60;47.40;;;;;;5054184;28;20440;-75
2023/04/22 10:41:56;;;;;;;5.63;3.13;;;22.60;47.70;;;;;;5053905;28;20060;-75
2023/04/22 10:44:26;;;;;;;10.68;3.15;;;22.50;47.20;;;;;;5054171;28;20114;-75
2023/04/22 10:46:51;;;;;;;10.87;3.57;;;22.40;47.50;;;;;;5052747;28;20382;-74
2023/04/22 10:49:29;;;;;;;5.47;3.33;;;22.50;48.10;;;;;;5054127;28;20032;-75
2023/04/22 10:51:57;;;;;;;6.80;3.63;;;22.50;47.70;;;;;;5053623;28;20029;-75
2023/04/22 10:54:35;;;;;;;8.55;3.25;;;22.50;46.50;;;;;;5053769;28;20025;-75
2023/04/22 10:57:05;;;;;;;4.95;3.13;;;22.60;47.90;;;;;;5053790;28;20032;-75
2023/04/22 10:59:53;;;;;;;5.70;2.77;;;22.60;47.30;;;;;;5053983;28;20078;-75
2023/04/22 11:02:20;;;;;;;8.18;3.75;;;22.60;47.80;;;;;;5053035;28;20094;-74
2023/04/22 11:04:46;;;;;;;6.25;2.97;;;22.70;47.00;;;;;;5053622;28;20029;-75
2023/04/22 11:07:21;;;;;;;6.85;3.28;;;22.60;47.40;;;;;;5053350;28;20150;-74
2023/04/22 11:10:00;;;;;;;8.30;3.20;;;22.70;48.10;;;;;;5053657;28;20025;-75
2023/04/22 11:12:37;;;;;;;6.30;3.25;;;22.70;47.80;;;;;;5053667;28;20065;-75
2023/04/22 11:15:12;;;;;;;10.48;3.30;;;22.60;47.10;;;;;;5053358;28;20036;-74
2023/04/22 11:17:42;;;;;;;5.90;3.20;;;22.60;47.50;;;;;;5053529;28;20110;-74
2023/04/22 11:20:09;;;;;;;8.18;3.20;;;22.60;47.20;;;;;;5053629;28;20029;-75
2023/04/22 11:22:36;;;;;;;6.05;3.00;;;22.60;47.60;;;;;;5053248;28;20028;-74
2023/04/22 11:25:03;;;;;;;8.20;3.03;;;22.60;47.10;;;;;;5053329;28;20032;-74
2023/04/22 11:27:29;;;;;;;7.45;3.05;;;22.60;46.90;;;;;;5053439;28;20032;-74
2023/04/22 11:30:22;;;;;;;7.07;3.25;;;22.60;46.30;;;;;;5053055;28;20025;-75
2023/04/22 11:32:50;;;;;;;5.45;2.95;;;22.50;46.10;;;;;;5051916;28;20041;-75
2023/04/22 11:35:31;;;;;;;6.15;2.75;;;22.50;46.30;;;;;;5053131;28;20478;-74
2023/04/22 11:38:01;;;;;;;4.68;2.80;;;22.50;46.30;;;;;;5053039;28;20029;-74
2023/04/22 11:40:32;;;;;;;5.80;2.88;;;22.50;46.10;;;;;;5052230;28;20091;-74
2023/04/22 11:43:00;;;;;;;5.40;2.97;;;22.40;45.60;;;;;;5051599;28;20036;-74
2023/04/22 11:45:27;;;;;;;5.88;2.70;;;22.50;46.80;;;;;;5052811;28;20053;-75
2023/04/22 11:47:52;;;;;;;6.63;2.70;;;22.50;45.90;;;;;;5052532;28;20032;-73
2023/04/22 11:50:24;;;;;;;8.40;3.38;;;22.50;46.70;;;;;;5053117;28;20032;-73
2023/04/22 11:53:14;;;;;;;6.38;2.60;;;22.60;46.70;;;;;;5051280;28;20044;-73
2023/04/22 11:55:41;;;;;;;7.35;2.47;;;22.50;46.10;;;;;;5049593;28;20095;-75
2023/04/22 11:58:13;;;;;;;4.50;2.80;;;22.60;46.10;;;;;;5049702;28;20461;-72
2023/04/22 12:00:40;;;;;;;5.78;2.80;;;22.60;45.90;;;;;;5051135;28;20024;-72
2023/04/22 12:03:21;;;;;;;7.57;2.88;;;22.60;45.80;;;;;;5050888;28;20098;-72
2023/04/22 12:05:53;;;;;;;5.43;2.58;;;22.60;45.00;;;;;;5050812;28;20076;-73
2023/04/22 12:08:43;;;;;;;8.27;3.00;;;22.50;44.80;;;;;;5051112;28;20135;-73
2023/04/22 12:11:10;;;;;;;5.63;2.70;;;22.40;45.80;;;;;;5050045;28;20080;-72
2023/04/22 12:13:36;;;;;;;4.63;2.65;;;22.20;45.50;;;;;;5051269;28;20032;-73
2023/04/22 12:16:18;;;;;;;7.72;2.90;;;22.10;46.40;;;;;;5049933;28;20489;-73
2023/04/22 12:18:47;;;;;;;11.93;3.63;;;22.00;46.80;;;;;;5048822;28;20025;-73
2023/04/22 12:21:15;;;;;;;4.50;2.83;;;21.90;47.40;;;;;;5052193;28;20032;-73
2023/04/22 12:23:45;;;;;;;6.53;3.20;;;21.80;47.80;;;;;;5052324;28;20473;-73
2023/04/22 12:26:11;;;;;;;5.20;3.20;;;21.80;47.20;;;;;;5051307;28;20056;-72
2023/04/22 12:28:38;;;;;;;9.18;2.90;;;21.70;47.00;;;;;;5052382;28;20024;-72
2023/04/22 12:31:04;;;;;;;6.40;3.00;;;21.70;47.70;;;;;;5051945;28;20068;-73
2023/04/22 12:33:31;;;;;;;10.68;3.60;;;21.60;47.50;;;;;;5052354;28;20051;-73
2023/04/22 12:35:56;;;;;;;9.10;2.83;;;21.60;47.90;;;;;;5051920;28;20025;-73
2023/04/22 12:38:22;;;;;;;6.72;3.13;;;21.50;47.90;;;;;;5050957;28;20051;-72